Larry Tilley — WY2160 — position and weather

sailwx.info

Track history (hours):
 
Tides and Currents Weather Stations Pressure Air Temp Water Temp Dewpoint Dewpoint Depression Visibility Wind Speed Wind Dir Waves Ship Positions

Larry Tilley

Owner: SOUTHERN TOWING CO, MEMPHIS, TN. More information available from US FCC via Universal Licensing System and Coast Guard Vessel Documentation Center.

Last reported at 2015-Jun-06 14:05 UTC. Time now 2015-Jul-08 06:34 UTC.
Position N 30°44' W 091°28'.
Warning: this ship's position is 31 days out of date.

Length 40 m; draft 8.6 m.

Type: Towing. MMSI: 366919230.

Date/timePositionNaut miles runAvg speedWind from/ knotsBaromVisibWave heightAir tempDewpointWater temp
2015-Jun-06 14:05N 30°44' W 091°28'2 3.0
2015-Jun-06 13:23N 30°45' W 091°26'2 2.8
2015-Jun-06 12:32N 30°45' W 091°23'3 2.9
2015-Jun-06 11:33N 30°43' W 091°21'4 3.7
2015-Jun-06 10:33N 30°39' W 091°20'3 3.0
2015-Jun-06 09:33N 30°37' W 091°18'3 2.6
2015-Jun-06 08:33N 30°34' W 091°17'3 3.0
2015-Jun-06 07:33N 30°33' W 091°14'3 3.1
2015-Jun-06 06:33N 30°31' W 091°17'3 2.7
2015-Jun-06 05:33N 30°31' W 091°14'3 2.7
2015-Jun-06 04:34N 30°29' W 091°12'3 2.9
2015-Jun-06 03:33N 30°26' W 091°12'3 2.5
2015-Jun-06 02:32N 30°24' W 091°13'0 0.0
2015-Jun-06 01:33N 30°24' W 091°13'1 0.9
2015-Jun-06 00:33N 30°23' W 091°13'3 2.1
2015-Jun-05 23:22N 30°21' W 091°12'3 3.1
2015-Jun-05 22:33N 30°20' W 091°09'2 2.4
2015-Jun-05 21:33N 30°19' W 091°11'58 1.2
2015-Jun-03 22:25N 29°57' W 090°09'3 3.0
2015-Jun-03 21:26N 29°55' W 090°07'1 1.4
2015-Jun-03 20:32N 29°55' W 090°06'2 1.7
2015-Jun-03 19:34N 29°55' W 090°04'4 3.5
2015-Jun-03 18:33N 29°56' W 090°00'1 0.5
2015-Jun-03 16:29N 29°56' W 089°59'0 0.0
2015-Jun-03 15:30N 29°56' W 089°59'0 0.0
2015-Jun-03 14:28N 29°56' W 089°59'2 0.1
2015-Jun-02 19:30N 29°55' W 089°57'2 0.7
2015-Jun-02 17:11N 29°56' W 089°59'0 0.0
2015-Jun-02 14:24N 29°56' W 089°59'0 0.0
2015-Jun-02 13:14N 29°56' W 089°59'0 0.0
2015-Jun-02 10:18N 29°56' W 089°59'0 0.0
2015-Jun-02 09:10N 29°56' W 089°59'0 0.0
2015-Jun-02 07:32N 29°56' W 089°59'0 0.0
2015-Jun-02 06:13N 29°56' W 089°59'0 0.0
2015-Jun-02 05:23N 29°56' W 089°59'0 0.0
2015-Jun-02 04:23N 29°56' W 089°59'0 0.0
2015-Jun-02 03:26N 29°56' W 089°59'0 0.0
2015-Jun-02 02:16N 29°56' W 089°59'0 0.0
2015-Jun-02 01:27N 29°56' W 089°59'0 0.0
2015-Jun-02 00:18N 29°56' W 089°59'0 0.0
2015-Jun-01 23:08N 29°56' W 089°59'0 0.0
2015-Jun-01 22:23N 29°56' W 089°59'0 0.0
2015-Jun-01 21:28N 29°56' W 089°59'0 0.0
2015-Jun-01 20:15N 29°56' W 089°59'0 0.0
2015-Jun-01 00:12N 29°56' W 089°59'0 0.0
2015-May-31 23:20N 29°56' W 089°59'1 0.5
2015-May-31 22:13N 29°56' W 089°60'5 5.8
2015-May-31 21:25N 29°55' W 090°05'63 3.3
2015-May-31 02:15N 30°17' W 091°13'5 6.8
2015-May-31 01:33N 30°20' W 091°09'6 5.9
2015-May-31 00:33N 30°25' W 091°12'6 6.4
2015-May-30 23:33N 30°30' W 091°16'5 4.9
2015-May-30 22:33N 30°35' W 091°19'  
Track history (hours):
 
Tides and Currents Weather Stations Pressure Air Temp Water Temp Dewpoint Dewpoint Depression Visibility Wind Speed Wind Dir Waves Ship Positions

Larry Tilley

Owner: SOUTHERN TOWING CO, MEMPHIS, TN. More information available from US FCC via Universal Licensing System and Coast Guard Vessel Documentation Center.

Last reported at 2015-Jun-06 14:05 UTC. Time now 2015-Jul-08 06:34 UTC.
Position N 30°44' W 091°28'.
Warning: this ship's position is 31 days out of date.

Length 40 m; draft 8.6 m.

Type: Towing. MMSI: 366919230.

Date/timePositionNaut miles runAvg speedWind from/ knotsBaromVisibWave heightAir tempDewpointWater temp
2015-Jun-06 14:05N 30°44' W 091°28'2 3.0
2015-Jun-06 13:23N 30°45' W 091°26'2 2.8
2015-Jun-06 12:32N 30°45' W 091°23'3 2.9
2015-Jun-06 11:33N 30°43' W 091°21'4 3.7
2015-Jun-06 10:33N 30°39' W 091°20'3 3.0
2015-Jun-06 09:33N 30°37' W 091°18'3 2.6
2015-Jun-06 08:33N 30°34' W 091°17'3 3.0
2015-Jun-06 07:33N 30°33' W 091°14'3 3.1
2015-Jun-06 06:33N 30°31' W 091°17'3 2.7
2015-Jun-06 05:33N 30°31' W 091°14'3 2.7
2015-Jun-06 04:34N 30°29' W 091°12'3 2.9
2015-Jun-06 03:33N 30°26' W 091°12'3 2.5
2015-Jun-06 02:32N 30°24' W 091°13'0 0.0
2015-Jun-06 01:33N 30°24' W 091°13'1 0.9
2015-Jun-06 00:33N 30°23' W 091°13'3 2.1
2015-Jun-05 23:22N 30°21' W 091°12'3 3.1
2015-Jun-05 22:33N 30°20' W 091°09'2 2.4
2015-Jun-05 21:33N 30°19' W 091°11'58 1.2
2015-Jun-03 22:25N 29°57' W 090°09'3 3.0
2015-Jun-03 21:26N 29°55' W 090°07'1 1.4
2015-Jun-03 20:32N 29°55' W 090°06'2 1.7
2015-Jun-03 19:34N 29°55' W 090°04'4 3.5
2015-Jun-03 18:33N 29°56' W 090°00'1 0.5
2015-Jun-03 16:29N 29°56' W 089°59'0 0.0
2015-Jun-03 15:30N 29°56' W 089°59'0 0.0
2015-Jun-03 14:28N 29°56' W 089°59'2 0.1
2015-Jun-02 19:30N 29°55' W 089°57'2 0.7
2015-Jun-02 17:11N 29°56' W 089°59'0 0.0
2015-Jun-02 14:24N 29°56' W 089°59'0 0.0
2015-Jun-02 13:14N 29°56' W 089°59'0 0.0
2015-Jun-02 10:18N 29°56' W 089°59'0 0.0
2015-Jun-02 09:10N 29°56' W 089°59'0 0.0
2015-Jun-02 07:32N 29°56' W 089°59'0 0.0
2015-Jun-02 06:13N 29°56' W 089°59'0 0.0
2015-Jun-02 05:23N 29°56' W 089°59'0 0.0
2015-Jun-02 04:23N 29°56' W 089°59'0 0.0
2015-Jun-02 03:26N 29°56' W 089°59'0 0.0
2015-Jun-02 02:16N 29°56' W 089°59'0 0.0
2015-Jun-02 01:27N 29°56' W 089°59'0 0.0
2015-Jun-02 00:18N 29°56' W 089°59'0 0.0
2015-Jun-01 23:08N 29°56' W 089°59'0 0.0
2015-Jun-01 22:23N 29°56' W 089°59'0 0.0
2015-Jun-01 21:28N 29°56' W 089°59'0 0.0
2015-Jun-01 20:15N 29°56' W 089°59'0 0.0
2015-Jun-01 00:12N 29°56' W 089°59'0 0.0
2015-May-31 23:20N 29°56' W 089°59'1 0.5
2015-May-31 22:13N 29°56' W 089°60'5 5.8
2015-May-31 21:25N 29°55' W 090°05'63 3.3
2015-May-31 02:15N 30°17' W 091°13'5 6.8
2015-May-31 01:33N 30°20' W 091°09'6 5.9
2015-May-31 00:33N 30°25' W 091°12'6 6.4
2015-May-30 23:33N 30°30' W 091°16'5 4.9
2015-May-30 22:33N 30°35' W 091°19'  

Dump ship's entire track history